Terminal Aerodrome Forecast
Issued by NWS

Home | Current Version | Previous Version | Text Only | Print | Product List | Glossary On
Versions: 1 2 3 4 5 6 7 8 9 10 11 12 13 14
532
FTUS45 KABQ 241130
TAFLVS
TAF
KLVS 241130Z 2412/2512 VRB06KT P6SM FEW060
     FM241500 27015G25KT P6SM SKC
     FM241800 28025G35KT P6SM SKC
     FM250100 31012G20KT P6SM SKC
     FM250400 03008KT P6SM SKC=

USA.gov is the U.S. government's official web portal to all federal, state and local government web resources and services.